Time;durP1;ratioP1;P1;durP2;ratioP2;P2;SDS_P1;SDS_P2;PMS_P1;PMS_P2;Temp;Humidity;BMP_temperature;BMP_pressure;BME280_temperature;BME280_humidity;BME280_pressure;Samples;Min_cycle;Max_cycle;Signal;HPM_P1;HPM_P2
2022/05/03 00:02:02;;;;;;;9.57;6.85;;;4.80;99.90;;;;;;5029393;28;20053;-76
2022/05/03 00:04:44;;;;;;;11.50;6.35;;;4.80;99.90;;;;;;5021350;28;20072;-76
2022/05/03 00:07:20;;;;;;;10.02;6.63;;;4.70;99.90;;;;;;5025427;28;20050;-76
2022/05/03 00:10:08;;;;;;;10.65;7.20;;;4.70;99.90;;;;;;5028252;28;20057;-80
2022/05/03 00:12:57;;;;;;;10.27;6.38;;;4.60;99.90;;;;;;5023821;28;20050;-75
2022/05/03 00:15:25;;;;;;;12.82;7.07;;;4.60;99.90;;;;;;5007652;28;20910;-76
2022/05/03 00:17:53;;;;;;;11.77;6.80;;;4.60;99.90;;;;;;4998802;28;20057;-75
2022/05/03 00:20:21;;;;;;;10.73;6.35;;;4.50;99.90;;;;;;5008451;28;20045;-78
2022/05/03 00:22:47;;;;;;;12.13;7.28;;;4.50;99.90;;;;;;4995187;28;20400;-81
2022/05/03 00:25:14;;;;;;;10.40;7.53;;;4.50;99.90;;;;;;4996916;28;20053;-75
2022/05/03 00:27:40;;;;;;;11.23;6.95;;;4.50;99.90;;;;;;4995186;28;20046;-75
2022/05/03 00:30:07;;;;;;;11.73;7.57;;;4.50;99.90;;;;;;5032199;28;20034;-76
2022/05/03 00:32:34;;;;;;;11.43;7.88;;;4.40;99.90;;;;;;4991427;28;20132;-76
2022/05/03 00:35:00;;;;;;;14.15;7.70;;;4.40;99.90;;;;;;4996757;28;20046;-78
2022/05/03 00:37:26;;;;;;;13.57;8.13;;;4.40;99.90;;;;;;5002664;28;20054;-75
2022/05/03 00:39:52;;;;;;;12.48;7.90;;;4.40;99.90;;;;;;4995371;28;20485;-74
2022/05/03 00:42:26;;;;;;;10.27;7.38;;;4.30;99.90;;;;;;5020199;28;20073;-74
2022/05/03 00:45:00;;;;;;;11.48;7.28;;;4.30;99.90;;;;;;5023469;28;20056;-74
2022/05/03 00:47:41;;;;;;;10.80;8.07;;;4.20;99.90;;;;;;4983599;28;20058;-74
2022/05/03 00:50:32;;;;;;;11.52;7.05;;;4.20;99.90;;;;;;5023882;28;20194;-74
2022/05/03 00:53:18;;;;;;;12.55;7.93;;;4.20;99.90;;;;;;5027397;28;20053;-75
2022/05/03 00:56:27;;;;;;;13.43;7.53;;;4.20;99.90;;;;;;4979256;28;20056;-74
2022/05/03 00:58:55;;;;;;;10.10;7.53;;;4.20;99.90;;;;;;5024461;28;20079;-75
2022/05/03 01:01:43;;;;;;;15.98;8.10;;;4.10;99.90;;;;;;5030284;28;20042;-75
2022/05/03 01:04:17;;;;;;;13.65;8.70;;;4.10;99.90;;;;;;5009736;28;20042;-74
2022/05/03 01:06:55;;;;;;;12.77;8.73;;;4.00;99.90;;;;;;5025560;28;20093;-74
2022/05/03 01:09:32;;;;;;;14.57;9.02;;;4.00;99.90;;;;;;5014737;28;20465;-75
2022/05/03 01:12:06;;;;;;;13.82;8.70;;;4.00;99.90;;;;;;5030492;28;20057;-75
2022/05/03 01:15:00;;;;;;;16.40;8.98;;;4.00;99.90;;;;;;5011132;28;20493;-74
2022/05/03 01:17:44;;;;;;;15.63;9.38;;;4.00;99.90;;;;;;4991610;28;20053;-75
2022/05/03 01:20:14;;;;;;;14.00;8.52;;;3.90;99.90;;;;;;4997356;28;20079;-75
2022/05/03 01:23:01;;;;;;;13.38;8.13;;;3.80;99.90;;;;;;5028180;28;20126;-79
2022/05/03 01:25:50;;;;;;;12.98;8.30;;;3.80;99.90;;;;;;4999721;28;20056;-74
2022/05/03 01:28:19;;;;;;;13.63;8.85;;;3.70;99.90;;;;;;5007942;28;20042;-75
2022/05/03 01:30:49;;;;;;;13.02;9.15;;;3.70;99.90;;;;;;5009137;28;20081;-76
2022/05/03 01:33:31;;;;;;;13.82;8.90;;;3.70;99.90;;;;;;4987619;28;20046;-76
2022/05/03 01:36:00;;;;;;;13.57;9.32;;;3.70;99.90;;;;;;5008585;28;20505;-74
2022/05/03 01:38:45;;;;;;;14.05;8.80;;;3.70;99.90;;;;;;4994417;28;20615;-75
2022/05/03 01:41:28;;;;;;;13.35;9.05;;;3.70;99.90;;;;;;5010307;28;20117;-75
2022/05/03 01:44:09;;;;;;;16.77;9.77;;;3.70;99.90;;;;;;5009567;28;20064;-75
2022/05/03 01:46:36;;;;;;;13.57;9.57;;;3.60;99.90;;;;;;5009439;28;20157;-75
2022/05/03 01:52:05;;;;;;;18.25;10.52;;;3.70;99.90;;;;;;5007998;28;20053;-79
2022/05/03 01:54:59;;;;;;;16.95;10.45;;;3.70;99.90;;;;;;4990268;28;20524;-75
2022/05/03 01:57:47;;;;;;;16.42;10.38;;;3.70;99.90;;;;;;5011162;28;20056;-75
2022/05/03 02:00:13;;;;;;;16.30;9.90;;;3.70;99.90;;;;;;5024756;28;20054;-75
2022/05/03 02:02:53;;;;;;;19.92;10.70;;;3.60;99.90;;;;;;5019442;28;20053;-75
2022/05/03 02:05:51;;;;;;;15.00;10.23;;;3.60;99.90;;;;;;4997188;28;20088;-76
2022/05/03 02:08:23;;;;;;;16.30;9.88;;;3.50;99.90;;;;;;5003456;28;20065;-74
2022/05/03 02:10:58;;;;;;;12.93;8.52;;;3.50;99.90;;;;;;5026661;28;20049;-74
2022/05/03 02:16:34;;;;;;;12.20;7.35;;;3.40;99.90;;;;;;5008968;28;20061;-74
2022/05/03 02:19:20;;;;;;;9.73;6.68;;;3.30;99.90;;;;;;5008079;28;20058;-75
2022/05/03 02:22:15;;;;;;;15.60;9.20;;;3.30;99.90;;;;;;5019665;28;20171;-75
2022/05/03 02:24:43;;;;;;;14.75;9.35;;;3.30;99.90;;;;;;5024888;28;20053;-75
2022/05/03 02:27:10;;;;;;;16.80;10.15;;;3.30;99.90;;;;;;5009645;28;20552;-74
2022/05/03 02:29:48;;;;;;;17.95;10.18;;;3.30;99.90;;;;;;5025391;28;20088;-75
2022/05/03 02:32:49;;;;;;;15.10;10.30;;;3.30;99.90;;;;;;5024874;28;20054;-76
2022/05/03 02:35:21;;;;;;;14.88;10.25;;;3.30;99.90;;;;;;4961434;28;20054;-75
2022/05/03 02:37:56;;;;;;;16.80;10.80;;;3.30;99.90;;;;;;4992698;28;20037;-74
2022/05/03 02:40:27;;;;;;;18.37;10.33;;;3.20;99.90;;;;;;4992319;28;20125;-77
2022/05/03 02:42:54;;;;;;;17.02;11.07;;;3.20;99.90;;;;;;5025352;28;20297;-74
2022/05/03 02:45:19;;;;;;;16.95;10.23;;;3.10;99.90;;;;;;4992598;28;20042;-75
2022/05/03 02:48:05;;;;;;;12.13;8.43;;;3.10;99.90;;;;;;4974383;28;20050;-75
2022/05/03 02:50:46;;;;;;;17.45;8.68;;;3.10;99.90;;;;;;5026416;28;20560;-75
2022/05/03 02:53:35;;;;;;;11.75;7.97;;;3.10;99.90;;;;;;5007661;28;20045;-75
2022/05/03 02:56:25;;;;;;;14.25;8.38;;;3.10;99.90;;;;;;5004614;28;20050;-75
2022/05/03 02:59:09;;;;;;;14.80;8.65;;;3.00;99.90;;;;;;4992317;28;20064;-74
2022/05/03 03:02:17;;;;;;;12.32;8.18;;;2.90;99.90;;;;;;5024951;28;20592;-75
2022/05/03 03:05:04;;;;;;;12.30;8.23;;;2.90;99.90;;;;;;5021408;28;20054;-75
2022/05/03 03:07:51;;;;;;;12.15;8.05;;;2.90;99.90;;;;;;5011834;28;20050;-75
2022/05/03 03:10:22;;;;;;;13.77;8.98;;;3.00;99.90;;;;;;5004356;28;20125;-75
2022/05/03 03:12:57;;;;;;;13.27;8.48;;;3.00;99.90;;;;;;5024565;28;20046;-74
2022/05/03 03:15:28;;;;;;;13.15;7.70;;;3.00;99.90;;;;;;5013559;28;20051;-75
2022/05/03 03:17:56;;;;;;;11.70;8.50;;;3.00;99.90;;;;;;5007052;28;20100;-74
2022/05/03 03:20:27;;;;;;;13.25;8.90;;;3.00;99.90;;;;;;4987490;28;20038;-75
2022/05/03 03:22:54;;;;;;;13.18;8.52;;;2.90;99.90;;;;;;4992926;28;20066;-75
2022/05/03 03:25:22;;;;;;;12.73;8.48;;;2.90;99.90;;;;;;5029857;28;20118;-76
2022/05/03 03:27:51;;;;;;;15.55;8.75;;;2.80;99.90;;;;;;5025694;28;20053;-74
2022/05/03 03:30:18;;;;;;;13.60;8.90;;;2.80;99.90;;;;;;4986803;28;20038;-74
2022/05/03 03:32:49;;;;;;;16.65;8.95;;;2.70;99.90;;;;;;5005713;28;20501;-75
2022/05/03 03:35:16;;;;;;;13.18;8.48;;;2.70;99.90;;;;;;5018861;28;20046;-77
2022/05/03 03:37:46;;;;;;;15.35;8.23;;;2.60;99.90;;;;;;5025597;28;20046;-75
2022/05/03 03:40:14;;;;;;;10.63;7.68;;;2.60;99.90;;;;;;5038488;28;20076;-75
2022/05/03 03:42:42;;;;;;;11.05;7.72;;;2.60;99.90;;;;;;5031744;28;20129;-75
2022/05/03 03:45:10;;;;;;;11.70;7.57;;;2.70;99.90;;;;;;5018070;28;20045;-75
2022/05/03 03:47:38;;;;;;;9.25;6.70;;;2.90;99.90;;;;;;4998668;28;20046;-75
2022/05/03 03:50:05;;;;;;;9.77;6.80;;;3.10;99.90;;;;;;4989036;28;20128;-75
2022/05/03 03:52:34;;;;;;;9.82;6.32;;;3.20;99.90;;;;;;5024928;28;20144;-75
2022/05/03 03:55:01;;;;;;;9.40;6.35;;;3.40;99.90;;;;;;5033542;28;20076;-80
2022/05/03 03:57:28;;;;;;;11.05;6.80;;;3.50;99.90;;;;;;5004195;28;20133;-74
2022/05/03 03:59:54;;;;;;;8.35;5.82;;;3.60;99.90;;;;;;5007696;28;20054;-74
2022/05/03 04:02:22;;;;;;;7.95;5.60;;;3.70;99.90;;;;;;4991577;28;20116;-75
2022/05/03 04:04:49;;;;;;;9.73;6.57;;;3.90;99.90;;;;;;4991387;28;20049;-74
2022/05/03 04:07:15;;;;;;;11.80;7.95;;;4.10;99.90;;;;;;5022548;28;20068;-78
2022/05/03 04:09:41;;;;;;;10.07;7.47;;;4.20;99.90;;;;;;4988942;28;20124;-74
2022/05/03 04:12:07;;;;;;;12.38;8.70;;;4.40;99.90;;;;;;4974334;28;20050;-75
2022/05/03 04:14:33;;;;;;;13.40;8.88;;;4.50;99.90;;;;;;5006879;28;20075;-74
2022/05/03 04:16:59;;;;;;;14.60;10.15;;;4.60;99.90;;;;;;4989514;28;20053;-74
2022/05/03 04:19:25;;;;;;;14.82;10.10;;;4.70;99.90;;;;;;4975045;28;20857;-75
2022/05/03 04:21:51;;;;;;;18.83;11.02;;;4.70;99.90;;;;;;4975999;28;20045;-74
2022/05/03 04:24:17;;;;;;;18.55;11.30;;;4.70;99.90;;;;;;5023318;28;20446;-74
2022/05/03 04:26:42;;;;;;;17.27;11.57;;;4.70;99.90;;;;;;5016071;28;20132;-76
2022/05/03 04:29:08;;;;;;;20.23;12.02;;;4.70;99.90;;;;;;4970681;28;20129;-74
2022/05/03 04:31:36;;;;;;;19.33;12.25;;;4.70;99.90;;;;;;5014319;28;20038;-74
2022/05/03 04:34:03;;;;;;;18.90;13.73;;;4.70;99.90;;;;;;4971681;28;20573;-79
2022/05/03 04:36:32;;;;;;;21.17;13.32;;;4.80;99.90;;;;;;5021549;28;20072;-74
2022/05/03 04:38:59;;;;;;;20.70;14.18;;;4.80;99.90;;;;;;5000065;28;20124;-74
2022/05/03 04:41:25;;;;;;;25.60;15.40;;;4.80;99.90;;;;;;5020473;28;20053;-75
2022/05/03 04:43:51;;;;;;;21.90;14.73;;;4.80;99.90;;;;;;4992090;28;20053;-75
2022/05/03 04:46:17;;;;;;;21.42;15.43;;;4.70;99.90;;;;;;4991312;28;20434;-75
2022/05/03 04:48:43;;;;;;;22.30;14.93;;;4.80;99.90;;;;;;4987785;28;20042;-74
2022/05/03 04:51:25;;;;;;;21.55;14.88;;;4.80;99.90;;;;;;4990567;28;20053;-74
2022/05/03 04:53:52;;;;;;;17.73;12.68;;;4.90;99.90;;;;;;4991987;28;20139;-74
2022/05/03 04:56:23;;;;;;;20.60;14.93;;;5.00;99.90;;;;;;4973220;28;20551;-74
2022/05/03 04:58:50;;;;;;;21.17;14.07;;;5.20;99.90;;;;;;5005458;28;20056;-76
2022/05/03 05:01:16;;;;;;;20.08;14.60;;;5.40;99.90;;;;;;5023958;28;20054;-75
2022/05/03 05:03:43;;;;;;;22.77;15.55;;;5.70;99.90;;;;;;5026773;28;20050;-74
2022/05/03 05:06:09;;;;;;;22.23;15.05;;;5.80;99.90;;;;;;5007498;28;20081;-74
2022/05/03 05:08:37;;;;;;;19.02;14.52;;;5.90;99.90;;;;;;4985170;28;20082;-77
2022/05/03 05:11:03;;;;;;;19.33;14.20;;;6.10;99.90;;;;;;4976005;28;20173;-74
2022/05/03 05:13:29;;;;;;;21.38;13.18;;;6.30;99.90;;;;;;5025347;28;20094;-76
2022/05/03 05:15:55;;;;;;;19.05;14.43;;;6.40;99.90;;;;;;4989240;28;20065;-76
2022/05/03 05:18:21;;;;;;;24.80;16.65;;;6.60;99.90;;;;;;5021621;28;20366;-75
2022/05/03 05:20:47;;;;;;;24.45;16.17;;;6.70;99.90;;;;;;4979301;28;20114;-79
2022/05/03 05:23:13;;;;;;;26.85;17.92;;;6.80;99.90;;;;;;4987689;28;20045;-75
2022/05/03 05:25:38;;;;;;;24.58;17.02;;;6.90;99.90;;;;;;5005823;28;20452;-74
2022/05/03 05:28:04;;;;;;;24.13;16.60;;;7.00;99.90;;;;;;4987227;28;20050;-76
2022/05/03 05:30:30;;;;;;;20.42;15.20;;;7.00;99.90;;;;;;4972783;28;20160;-76
2022/05/03 05:32:55;;;;;;;24.73;17.33;;;7.10;99.90;;;;;;4973870;28;20112;-75
2022/05/03 05:35:21;;;;;;;23.80;16.70;;;7.30;99.90;;;;;;5023443;28;20044;-74
2022/05/03 05:37:47;;;;;;;27.83;17.60;;;7.30;99.90;;;;;;4978147;28;20129;-74
2022/05/03 05:40:12;;;;;;;25.25;18.48;;;7.40;99.90;;;;;;5027355;28;20060;-74
2022/05/03 05:42:38;;;;;;;24.60;18.15;;;7.60;99.90;;;;;;4978364;28;20088;-74
2022/05/03 05:45:05;;;;;;;22.58;16.60;;;7.70;99.90;;;;;;4996793;28;20057;-74
2022/05/03 05:47:31;;;;;;;26.23;19.42;;;7.80;99.90;;;;;;5001851;28;20050;-74
2022/05/03 05:49:57;;;;;;;27.75;20.00;;;7.90;99.90;;;;;;5010700;28;20129;-76
2022/05/03 05:55:08;;;;;;;33.25;21.35;;;8.10;99.90;;;;;;5009272;28;20058;-82
2022/05/03 05:57:34;;;;;;;29.80;21.92;;;8.20;99.90;;;;;;4993560;28;20049;-75
2022/05/03 06:00:00;;;;;;;32.50;21.73;;;8.40;99.90;;;;;;4956906;28;20108;-79
2022/05/03 06:02:26;;;;;;;30.70;21.23;;;8.40;99.90;;;;;;4988267;28;20143;-75
2022/05/03 06:04:51;;;;;;;32.45;22.63;;;8.50;99.90;;;;;;4990168;28;20049;-75
2022/05/03 06:07:17;;;;;;;32.40;22.77;;;8.60;99.90;;;;;;5002319;28;20540;-75
2022/05/03 06:09:43;;;;;;;33.67;22.50;;;8.70;99.90;;;;;;4993809;28;20132;-75
2022/05/03 06:12:09;;;;;;;35.17;22.98;;;8.80;99.90;;;;;;4977667;28;20046;-82
2022/05/03 06:14:36;;;;;;;32.75;23.42;;;8.90;99.90;;;;;;5002232;28;20124;-77
2022/05/03 06:17:02;;;;;;;36.17;23.50;;;9.00;99.90;;;;;;5026932;28;20058;-75
2022/05/03 06:19:27;;;;;;;31.20;21.90;;;9.00;99.90;;;;;;4977755;28;20063;-75
2022/05/03 06:21:53;;;;;;;32.65;22.30;;;9.10;99.90;;;;;;4977943;28;20481;-75
2022/05/03 06:24:19;;;;;;;27.73;21.17;;;9.10;99.90;;;;;;5009752;28;20046;-75
2022/05/03 06:26:45;;;;;;;30.98;21.38;;;9.30;99.90;;;;;;4978010;28;20054;-76
2022/05/03 06:29:11;;;;;;;32.58;21.85;;;9.30;99.90;;;;;;5000533;28;20072;-81
2022/05/03 06:31:42;;;;;;;31.85;21.80;;;9.50;99.90;;;;;;5013390;28;20049;-75
2022/05/03 06:34:08;;;;;;;34.28;22.70;;;9.60;99.90;;;;;;4997840;28;20378;-75
2022/05/03 06:36:37;;;;;;;37.70;23.95;;;9.70;99.90;;;;;;5012140;28;20104;-74
2022/05/03 06:39:04;;;;;;;31.35;21.10;;;9.80;99.90;;;;;;5013842;28;20072;-76
2022/05/03 06:41:34;;;;;;;37.25;23.65;;;9.80;99.90;;;;;;4978231;28;20049;-76
2022/05/03 06:44:00;;;;;;;35.58;22.95;;;9.90;99.90;;;;;;5010063;28;20108;-74
2022/05/03 06:46:26;;;;;;;37.78;22.35;;;10.00;99.90;;;;;;5009117;28;20131;-75
2022/05/03 06:48:52;;;;;;;34.97;23.35;;;10.00;99.90;;;;;;4993663;28;20046;-75
2022/05/03 06:51:18;;;;;;;39.90;23.58;;;10.00;99.90;;;;;;5044141;28;20040;-75
2022/05/03 06:53:44;;;;;;;40.38;24.75;;;10.10;99.90;;;;;;4999044;28;20400;-75
2022/05/03 06:56:09;;;;;;;42.78;24.70;;;10.10;99.90;;;;;;5033342;28;20041;-75
2022/05/03 06:58:35;;;;;;;37.17;24.70;;;10.10;99.90;;;;;;5045609;28;20041;-76
2022/05/03 07:01:11;;;;;;;39.15;24.10;;;10.10;99.90;;;;;;4998683;28;20054;-79
2022/05/03 07:03:38;;;;;;;36.72;23.27;;;10.10;99.90;;;;;;4992739;28;20052;-76
2022/05/03 07:06:04;;;;;;;46.83;27.27;;;10.10;99.90;;;;;;4976745;28;20057;-76
2022/05/03 07:08:31;;;;;;;43.03;24.90;;;10.10;99.90;;;;;;4992263;28;20402;-78
2022/05/03 07:10:57;;;;;;;49.65;27.95;;;10.10;99.90;;;;;;4992350;28;20493;-76
2022/05/03 07:13:25;;;;;;;53.97;31.00;;;10.10;99.90;;;;;;5008313;28;20046;-75
2022/05/03 07:15:57;;;;;;;53.10;28.55;;;10.10;99.90;;;;;;4994866;28;20579;-76
2022/05/03 07:23:53;;;;;;;58.47;28.40;;;10.10;99.90;;;;;;4992687;28;20141;-75
2022/05/03 07:26:21;;;;;;;51.95;28.05;;;10.10;99.90;;;;;;4987480;28;20072;-78
2022/05/03 07:28:49;;;;;;;44.30;25.92;;;10.10;99.90;;;;;;5008163;28;20068;-75
2022/05/03 07:31:16;;;;;;;44.60;26.23;;;10.10;99.90;;;;;;4990686;28;20050;-81
2022/05/03 07:33:43;;;;;;;50.72;25.77;;;10.10;99.90;;;;;;5004990;28;20477;-75
2022/05/03 07:36:09;;;;;;;48.78;25.27;;;10.10;99.90;;;;;;4991918;28;20064;-75
2022/05/03 07:38:35;;;;;;;46.40;24.77;;;10.10;99.90;;;;;;4988625;28;20080;-75
2022/05/03 07:41:01;;;;;;;42.75;23.42;;;10.10;99.90;;;;;;5004373;28;20077;-77
2022/05/03 07:43:27;;;;;;;42.10;24.10;;;10.10;99.90;;;;;;4990130;28;20042;-74
2022/05/03 07:45:54;;;;;;;37.25;19.20;;;10.10;99.90;;;;;;4991239;28;20606;-76
2022/05/03 07:48:20;;;;;;;36.47;19.75;;;10.10;99.90;;;;;;4985268;28;20131;-80
2022/05/03 07:50:46;;;;;;;24.75;13.23;;;10.10;99.90;;;;;;4991336;28;20034;-77
2022/05/03 07:53:12;;;;;;;21.30;10.18;;;10.10;99.90;;;;;;5024670;28;20045;-74
2022/05/03 07:55:38;;;;;;;21.15;8.00;;;10.10;99.90;;;;;;5006494;28;20045;-75
2022/05/03 07:58:04;;;;;;;17.70;8.15;;;10.10;99.90;;;;;;5006632;28;20050;-75
2022/05/03 08:00:30;;;;;;;19.38;7.47;;;10.10;99.90;;;;;;4974112;28;20503;-74
2022/05/03 08:02:55;;;;;;;13.98;6.50;;;10.10;99.90;;;;;;4991581;28;20085;-75
2022/05/03 08:05:21;;;;;;;12.18;6.80;;;10.10;99.90;;;;;;5023319;28;20552;-79
2022/05/03 08:07:47;;;;;;;17.73;6.65;;;10.10;99.90;;;;;;4990981;28;20052;-75
2022/05/03 08:10:13;;;;;;;15.48;6.45;;;10.10;99.90;;;;;;5004062;28;20050;-78
2022/05/03 08:12:39;;;;;;;15.52;6.10;;;10.10;99.90;;;;;;4990983;28;20232;-75
2022/05/03 08:15:05;;;;;;;9.50;5.45;;;10.10;99.90;;;;;;5004910;28;20066;-75
2022/05/03 08:17:31;;;;;;;14.80;6.47;;;10.10;99.90;;;;;;5006864;28;20527;-76
2022/05/03 08:19:57;;;;;;;17.55;6.30;;;10.20;99.90;;;;;;5015360;28;20049;-76
2022/05/03 08:22:25;;;;;;;18.13;6.85;;;10.30;99.90;;;;;;4988974;28;20133;-74
2022/05/03 08:24:51;;;;;;;13.63;6.65;;;10.40;99.90;;;;;;5021433;28;20512;-75
2022/05/03 08:27:18;;;;;;;14.10;6.10;;;10.50;99.90;;;;;;4971102;28;20046;-77
2022/05/03 08:29:44;;;;;;;14.50;6.25;;;10.50;99.90;;;;;;4987469;28;20050;-75
2022/05/03 08:32:11;;;;;;;18.98;6.93;;;10.70;99.90;;;;;;4984260;28;20576;-76
2022/05/03 08:34:36;;;;;;;12.73;5.95;;;10.70;99.90;;;;;;5024448;28;20050;-80
2022/05/03 08:42:31;;;;;;;21.23;7.22;;;10.70;99.90;;;;;;5007474;28;20060;-75
2022/05/03 08:44:57;;;;;;;21.58;6.95;;;10.80;99.90;;;;;;4987912;28;20042;-78
2022/05/03 08:47:26;;;;;;;18.10;6.35;;;10.80;99.90;;;;;;5001090;28;20058;-74
2022/05/03 08:50:00;;;;;;;21.02;6.53;;;10.80;99.90;;;;;;4993060;28;20151;-75
2022/05/03 08:52:28;;;;;;;18.27;6.18;;;10.80;99.90;;;;;;5007621;28;20084;-75
2022/05/03 08:54:56;;;;;;;25.48;6.43;;;10.80;99.90;;;;;;5009509;28;20050;-75
2022/05/03 08:57:23;;;;;;;21.83;6.70;;;10.80;99.90;;;;;;5042234;28;20053;-82
2022/05/03 08:59:50;;;;;;;17.95;5.75;;;10.80;99.90;;;;;;4992513;28;20053;-75
2022/05/03 09:02:16;;;;;;;19.38;6.88;;;10.80;99.90;;;;;;5021629;28;20053;-75
2022/05/03 09:04:41;;;;;;;25.40;6.43;;;10.80;99.90;;;;;;4988253;28;20041;-76
2022/05/03 09:07:22;;;;;;;20.25;6.43;;;10.80;99.90;;;;;;5008252;28;20050;-75
2022/05/03 09:09:50;;;;;;;20.60;6.15;;;10.90;99.90;;;;;;5009216;28;20490;-74
2022/05/03 09:12:28;;;;;;;18.67;6.60;;;11.00;99.90;;;;;;5018578;28;20049;-75
2022/05/03 09:14:59;;;;;;;18.08;6.47;;;11.00;99.90;;;;;;5047495;28;20570;-75
2022/05/03 09:17:40;;;;;;;20.00;5.68;;;11.20;99.90;;;;;;5047279;28;20259;-75
2022/05/03 09:25:52;;;;;;;;;;;11.50;99.90;;;;;;5022927;28;20049;-75
2022/05/03 09:28:20;;;;;;;16.27;4.20;;;11.60;99.90;;;;;;5012367;28;19933;-76
2022/05/03 09:30:51;;;;;;;19.00;4.80;;;11.80;99.90;;;;;;4987719;28;20046;-77
2022/05/03 09:33:21;;;;;;;15.98;4.93;;;11.90;99.90;;;;;;5037290;28;20303;-77
2022/05/03 09:35:48;;;;;;;22.85;5.70;;;11.90;99.90;;;;;;5014291;28;20077;-74
2022/05/03 09:38:15;;;;;;;16.02;4.80;;;12.10;99.90;;;;;;4978945;28;20077;-75
2022/05/03 09:40:43;;;;;;;21.65;5.47;;;12.10;99.90;;;;;;4989649;28;20141;-75
2022/05/03 09:43:09;;;;;;;19.42;5.28;;;12.10;99.90;;;;;;5001450;28;20050;-75
2022/05/03 09:45:36;;;;;;;19.23;4.68;;;12.20;99.90;;;;;;5009805;28;20500;-76
2022/05/03 09:48:02;;;;;;;22.60;5.55;;;12.20;99.90;;;;;;4993691;28;20050;-77
2022/05/03 09:50:40;;;;;;;18.27;6.03;;;12.20;99.90;;;;;;5026804;28;20038;-75
2022/05/03 09:53:16;;;;;;;18.42;5.10;;;12.20;99.90;;;;;;4994314;28;20115;-76
2022/05/03 09:55:42;;;;;;;22.73;4.90;;;12.20;99.90;;;;;;5040120;28;20143;-79
2022/05/03 09:58:10;;;;;;;21.05;5.15;;;12.20;99.90;;;;;;5007572;28;20053;-75
2022/05/03 10:00:39;;;;;;;21.10;4.95;;;12.20;99.90;;;;;;5008493;28;20085;-77
2022/05/03 10:03:09;;;;;;;16.42;4.85;;;12.30;99.90;;;;;;5004878;28;20041;-76
2022/05/03 10:05:39;;;;;;;19.17;4.85;;;12.40;99.90;;;;;;5018775;28;20061;-78
2022/05/03 10:08:06;;;;;;;14.05;3.95;;;12.50;99.90;;;;;;5013302;28;20092;-77
2022/05/03 10:10:32;;;;;;;20.83;5.00;;;12.60;99.90;;;;;;5010472;28;20045;-76
2022/05/03 10:12:59;;;;;;;13.40;4.30;;;12.70;99.90;;;;;;4997258;28;20069;-77
2022/05/03 10:21:15;;;;;;;11.88;3.25;;;13.10;99.90;;;;;;5009812;28;20057;-77
2022/05/03 10:23:59;;;;;;;13.30;3.67;;;13.30;99.90;;;;;;5036973;28;20049;-76
2022/05/03 10:27:03;;;;;;;12.43;3.28;;;13.60;99.90;;;;;;5033551;28;20088;-77
2022/05/03 10:29:32;;;;;;;15.30;3.95;;;13.90;99.90;;;;;;5009829;28;20119;-77
2022/05/03 10:32:07;;;;;;;12.95;3.58;;;14.10;99.90;;;;;;4994086;28;20050;-76
2022/05/03 10:34:42;;;;;;;17.40;3.45;;;14.10;99.70;;;;;;5001744;28;20049;-75
2022/05/03 10:37:16;;;;;;;8.68;3.10;;;14.30;99.90;;;;;;5029380;28;20116;-76
2022/05/03 10:39:57;;;;;;;15.20;3.70;;;14.40;96.90;;;;;;5045823;28;20085;-79
2022/05/03 10:42:28;;;;;;;13.50;3.70;;;14.60;93.80;;;;;;5019805;28;20042;-76
2022/05/03 10:44:53;;;;;;;11.75;4.07;;;14.60;94.10;;;;;;5038134;28;20128;-76
2022/05/03 10:47:21;;;;;;;13.40;4.20;;;15.00;94.10;;;;;;5008929;28;20433;-76
2022/05/03 10:50:19;;;;;;;14.20;3.65;;;15.40;92.80;;;;;;5025574;28;20053;-77
2022/05/03 10:52:59;;;;;;;15.85;3.70;;;15.70;89.30;;;;;;5007532;28;20567;-76
2022/05/03 10:55:35;;;;;;;11.82;4.13;;;15.70;89.90;;;;;;5005425;28;20092;-78
2022/05/03 10:58:28;;;;;;;14.45;3.17;;;15.60;86.30;;;;;;5008611;28;20828;-77
2022/05/03 11:01:20;;;;;;;7.78;3.00;;;15.50;80.80;;;;;;4992297;28;20050;-76
2022/05/03 11:03:48;;;;;;;14.25;3.53;;;15.30;81.20;;;;;;5006542;28;20050;-76
2022/05/03 11:06:26;;;;;;;15.23;3.13;;;15.20;85.60;;;;;;5013020;28;20041;-75
2022/05/03 11:11:39;;;;;;;13.07;3.00;;;15.10;85.10;;;;;;5032979;28;20054;-76
2022/05/03 11:14:11;;;;;;;9.05;2.75;;;15.10;83.20;;;;;;5027272;28;20488;-75
2022/05/03 11:16:37;;;;;;;8.10;2.80;;;15.10;83.90;;;;;;5010139;28;20460;-75
2022/05/03 11:19:14;;;;;;;14.43;3.38;;;15.40;82.00;;;;;;4993003;28;20061;-75
2022/05/03 11:21:41;;;;;;;9.98;2.80;;;15.60;79.50;;;;;;4996502;28;20065;-77
2022/05/03 11:24:20;;;;;;;8.95;3.05;;;15.70;78.60;;;;;;4995873;28;20067;-76
2022/05/03 11:26:47;;;;;;;11.07;3.03;;;15.60;73.50;;;;;;5013558;28;20137;-76
2022/05/03 11:29:13;;;;;;;7.00;2.70;;;15.50;75.30;;;;;;5009739;28;20041;-75
2022/05/03 11:31:45;;;;;;;9.68;2.97;;;15.60;75.60;;;;;;5025140;28;20484;-75
2022/05/03 11:34:10;;;;;;;7.60;3.00;;;15.70;73.80;;;;;;4992543;28;20053;-77
2022/05/03 11:36:36;;;;;;;10.32;3.47;;;16.00;71.70;;;;;;4992299;28;20053;-78
2022/05/03 11:39:04;;;;;;;6.80;2.65;;;16.20;68.60;;;;;;4991832;28;20045;-79
2022/05/03 11:41:30;;;;;;;8.15;2.53;;;16.10;66.70;;;;;;5025265;28;20045;-77
2022/05/03 11:43:56;;;;;;;6.85;2.75;;;15.90;66.80;;;;;;4971843;28;20038;-76
2022/05/03 11:46:23;;;;;;;8.35;3.47;;;16.00;66.60;;;;;;5025765;28;20069;-79
2022/05/03 11:48:59;;;;;;;8.35;2.47;;;16.20;65.80;;;;;;5024109;28;20060;-75
2022/05/03 11:57:33;;;;;;;14.60;3.40;;;17.30;57.90;;;;;;5003780;28;20054;-78
2022/05/03 12:00:03;;;;;;;10.02;2.72;;;17.20;58.60;;;;;;5008501;28;20046;-76
2022/05/03 12:02:30;;;;;;;8.48;2.78;;;17.60;59.40;;;;;;4994140;28;20054;-75
2022/05/03 12:05:20;;;;;;;6.95;2.25;;;18.50;56.80;;;;;;5029999;28;20046;-75
2022/05/03 12:07:50;;;;;;;5.10;2.10;;;18.60;51.90;;;;;;5020681;28;20065;-75
2022/05/03 12:10:20;;;;;;;8.88;2.80;;;18.10;53.60;;;;;;4994186;28;20044;-76
2022/05/03 12:12:51;;;;;;;7.75;2.22;;;17.80;54.10;;;;;;4989180;28;20488;-75
2022/05/03 12:15:24;;;;;;;8.63;2.35;;;17.60;54.90;;;;;;5014950;28;20081;-75
2022/05/03 12:18:02;;;;;;;6.68;2.58;;;17.90;54.60;;;;;;5006798;28;20164;-77
2022/05/03 12:20:40;;;;;;;7.07;2.13;;;18.10;53.00;;;;;;4995327;28;20118;-75
2022/05/03 12:23:09;;;;;;;7.18;1.90;;;18.50;51.20;;;;;;5007704;28;20037;-76
2022/05/03 12:25:36;;;;;;;5.32;1.73;;;18.80;51.20;;;;;;5022924;28;20053;-82
2022/05/03 12:28:06;;;;;;;5.40;1.88;;;19.00;51.30;;;;;;5018072;28;20053;-79
2022/05/03 12:30:32;;;;;;;7.32;1.95;;;19.50;50.30;;;;;;5007538;28;20044;-77
2022/05/03 12:33:06;;;;;;;6.88;2.00;;;19.60;48.50;;;;;;5037215;28;20126;-77
2022/05/03 12:35:33;;;;;;;4.05;1.65;;;19.50;47.40;;;;;;5024411;28;20107;-76
2022/05/03 12:38:16;;;;;;;5.82;1.92;;;19.40;47.90;;;;;;5007005;28;20048;-77
2022/05/03 12:40:57;;;;;;;11.40;2.35;;;19.50;47.20;;;;;;4996939;28;20152;-78
2022/05/03 12:43:27;;;;;;;5.65;2.00;;;19.60;46.70;;;;;;5004950;28;20061;-80
2022/05/03 12:45:58;;;;;;;5.07;1.83;;;19.20;47.30;;;;;;4991172;28;20063;-76
2022/05/03 12:48:24;;;;;;;8.57;2.10;;;19.00;47.30;;;;;;4988790;28;20057;-76
2022/05/03 12:50:49;;;;;;;5.82;1.73;;;19.50;47.40;;;;;;4996950;28;20053;-76
2022/05/03 12:53:15;;;;;;;6.00;1.80;;;19.60;46.20;;;;;;5006730;28;20561;-78
2022/05/03 12:55:42;;;;;;;8.02;1.58;;;19.20;46.20;;;;;;4994904;28;20052;-77
2022/05/03 12:58:24;;;;;;;6.88;2.00;;;18.70;47.00;;;;;;4997157;28;20412;-76
2022/05/03 13:00:54;;;;;;;5.85;2.25;;;18.50;48.30;;;;;;5034727;28;20156;-76
2022/05/03 13:03:21;;;;;;;5.95;1.70;;;18.40;48.10;;;;;;5025870;28;20049;-78
2022/05/03 13:05:48;;;;;;;6.53;1.60;;;18.00;47.90;;;;;;5013013;28;20060;-79
2022/05/03 13:08:15;;;;;;;8.52;2.20;;;17.50;49.00;;;;;;5026442;28;20087;-76
2022/05/03 13:10:41;;;;;;;9.55;2.17;;;17.10;49.80;;;;;;5043307;28;20050;-82
2022/05/03 13:13:07;;;;;;;7.10;2.00;;;16.80;50.50;;;;;;5006217;28;20065;-76
2022/05/03 13:15:33;;;;;;;4.68;1.70;;;16.70;51.30;;;;;;5016915;28;20100;-76
2022/05/03 13:17:59;;;;;;;9.07;2.35;;;16.90;51.60;;;;;;5011092;28;20127;-80
2022/05/03 13:20:26;;;;;;;10.50;2.15;;;17.10;50.90;;;;;;5011237;28;20049;-77
2022/05/03 13:22:54;;;;;;;6.47;2.30;;;17.10;50.20;;;;;;5010874;28;20092;-76
2022/05/03 13:25:20;;;;;;;6.32;2.15;;;17.00;50.90;;;;;;4994929;28;20042;-76
2022/05/03 13:27:47;;;;;;;4.88;2.17;;;17.00;51.10;;;;;;4994032;28;20054;-76
2022/05/03 13:30:13;;;;;;;9.45;2.15;;;17.10;50.80;;;;;;5018270;28;20071;-75
2022/05/03 13:32:39;;;;;;;8.65;2.28;;;17.20;50.40;;;;;;5040476;28;20507;-83
2022/05/03 13:35:05;;;;;;;8.80;1.92;;;17.40;50.50;;;;;;5046943;28;20045;-76
2022/05/03 13:40:30;;;;;;;5.03;1.80;;;17.20;50.00;;;;;;5031097;28;20107;-77
2022/05/03 13:43:03;;;;;;;4.78;1.80;;;17.20;50.40;;;;;;5015994;28;20478;-76